createdAt,value
2023-01-31T00:04:07.413Z,4.59
2023-01-31T00:09:12.589Z,4.50
2023-01-31T00:14:20.364Z,4.46
2023-01-31T00:19:30.472Z,4.50
2023-01-31T00:24:37.804Z,4.48
2023-01-31T00:29:43.053Z,4.47
2023-01-31T00:34:47.147Z,4.53
2023-01-31T00:39:48.761Z,4.51
2023-01-31T00:44:55.843Z,4.54
2023-01-31T00:50:01.624Z,4.53
2023-01-31T00:55:10.699Z,4.54
2023-01-31T01:00:13.815Z,4.54
2023-01-31T01:05:18.541Z,4.56
2023-01-31T01:10:29.634Z,4.44
2023-01-31T01:15:37.574Z,4.44
2023-01-31T01:20:46.717Z,4.53
2023-01-31T01:25:49.228Z,4.57
2023-01-31T01:31:02.751Z,4.53
2023-01-31T01:36:23.167Z,4.52
2023-01-31T01:41:35.446Z,4.42
2023-01-31T01:46:48.050Z,4.48
2023-01-31T01:51:52.567Z,4.49
2023-01-31T01:57:09.335Z,4.43
2023-01-31T02:02:18.866Z,4.40
2023-01-31T02:07:21.615Z,4.37
2023-01-31T02:12:25.200Z,4.31
2023-01-31T02:17:29.357Z,4.36
2023-01-31T02:23:32.618Z,4.31
2023-01-31T02:28:56.946Z,4.41
2023-01-31T02:34:12.956Z,4.40
2023-01-31T02:40:01.915Z,4.42
2023-01-31T02:45:33.418Z,4.42
2023-01-31T02:50:52.077Z,4.41
2023-01-31T02:56:31.829Z,4.46
2023-01-31T03:01:46.486Z,4.51
2023-01-31T03:07:08.404Z,4.53
2023-01-31T03:12:30.651Z,4.54
2023-01-31T03:17:52.077Z,4.54
2023-01-31T03:23:00.898Z,4.61
2023-01-31T03:28:07.580Z,4.65
2023-01-31T03:33:29.831Z,4.61
2023-01-31T03:38:54.377Z,4.65
2023-01-31T03:44:20.827Z,4.56
2023-01-31T03:49:28.413Z,4.51
2023-01-31T03:54:38.703Z,4.47
2023-01-31T03:59:43.118Z,4.51
2023-01-31T04:04:58.119Z,4.50
2023-01-31T04:10:02.041Z,4.47
2023-01-31T04:15:08.446Z,4.45
2023-01-31T04:20:13.110Z,4.43
2023-01-31T04:25:14.671Z,4.35
2023-01-31T04:30:20.718Z,4.42
2023-01-31T04:35:30.911Z,4.39
2023-01-31T04:40:50.029Z,4.43
2023-01-31T04:45:56.095Z,4.42
2023-01-31T04:51:00.090Z,4.37
2023-01-31T04:56:05.826Z,4.38
2023-01-31T05:01:08.584Z,4.44
2023-01-31T05:06:10.215Z,4.44
2023-01-31T05:11:11.834Z,4.45
2023-01-31T05:16:18.755Z,4.47
2023-01-31T05:21:20.388Z,4.48
2023-01-31T05:26:24.273Z,4.46
2023-01-31T05:31:28.794Z,4.56
2023-01-31T05:36:33.832Z,4.56
2023-01-31T05:41:39.434Z,4.51
2023-01-31T05:46:45.984Z,4.55
2023-01-31T05:52:05.081Z,4.55
2023-01-31T05:57:08.945Z,4.54
2023-01-31T06:02:15.270Z,4.63
2023-01-31T06:07:23.104Z,4.68
2023-01-31T06:12:29.702Z,4.67
2023-01-31T06:17:36.485Z,4.70
2023-01-31T06:22:57.823Z,4.72
2023-01-31T06:28:04.567Z,4.74
2023-01-31T06:33:07.289Z,4.78
2023-01-31T06:38:09.293Z,4.78
2023-01-31T06:43:15.367Z,4.78
2023-01-31T06:48:17.623Z,4.80
2023-01-31T06:53:23.705Z,4.75
2023-01-31T06:58:28.149Z,4.75
2023-01-31T07:03:31.379Z,4.76
2023-01-31T07:08:36.108Z,4.77
2023-01-31T07:13:49.021Z,4.82
2023-01-31T07:18:56.427Z,4.87
2023-01-31T07:24:00.506Z,4.86
2023-01-31T07:29:05.602Z,4.88
2023-01-31T07:34:17.978Z,4.93
2023-01-31T07:39:21.710Z,4.91
2023-01-31T07:44:24.512Z,4.90
2023-01-31T07:49:32.140Z,4.91
2023-01-31T07:54:40.319Z,4.89
2023-01-31T07:59:44.599Z,4.88
2023-01-31T08:04:51.162Z,4.87
2023-01-31T08:09:52.960Z,4.91
2023-01-31T08:14:56.184Z,4.95
2023-01-31T08:20:00.321Z,4.99
2023-01-31T08:25:05.608Z,4.98
2023-01-31T08:30:14.975Z,5.01
2023-01-31T08:35:29.348Z,5.02
2023-01-31T08:40:40.219Z,5.02
2023-01-31T08:45:47.856Z,5.04
2023-01-31T08:50:51.722Z,5.06
2023-01-31T08:56:07.843Z,5.00
2023-01-31T09:01:14.383Z,4.94
2023-01-31T09:06:23.373Z,4.92
2023-01-31T09:11:27.842Z,4.93
2023-01-31T09:16:31.329Z,4.93
2023-01-31T09:21:35.604Z,4.95
2023-01-31T09:26:39.626Z,4.89
2023-01-31T09:31:54.588Z,4.93
2023-01-31T09:36:57.716Z,4.92
2023-01-31T09:42:18.427Z,4.89
2023-01-31T09:47:30.914Z,4.93
2023-01-31T09:52:35.378Z,4.99
2023-01-31T09:58:07.452Z,4.98
2023-01-31T10:03:18.730Z,4.98
2023-01-31T10:08:39.904Z,4.96
2023-01-31T10:13:55.615Z,4.97
2023-01-31T10:19:06.348Z,4.95
2023-01-31T10:24:22.123Z,5.03
2023-01-31T10:29:32.718Z,5.11
2023-01-31T10:34:54.658Z,5.11
2023-01-31T10:40:04.040Z,5.12
2023-01-31T10:45:23.208Z,5.13
2023-01-31T10:50:40.216Z,5.18
2023-01-31T10:55:54.054Z,5.13
2023-01-31T11:00:58.379Z,5.11
2023-01-31T11:06:03.920Z,5.11
2023-01-31T11:11:12.905Z,5.17
2023-01-31T11:16:19.416Z,5.18
2023-01-31T11:21:37.799Z,5.17
2023-01-31T11:26:42.553Z,5.10
2023-01-31T11:31:50.487Z,5.04
2023-01-31T11:36:53.632Z,5.10
2023-01-31T11:41:58.111Z,5.19
2023-01-31T11:47:10.969Z,5.26
2023-01-31T11:52:14.817Z,5.29
2023-01-31T11:57:26.829Z,5.34
2023-01-31T12:02:37.858Z,5.41
2023-01-31T12:07:44.277Z,5.42
2023-01-31T12:12:45.830Z,5.44
2023-01-31T12:17:50.678Z,5.36
2023-01-31T12:23:03.419Z,5.41
2023-01-31T12:28:33.110Z,5.36
2023-01-31T12:34:03.993Z,5.37
2023-01-31T12:39:28.376Z,5.34
2023-01-31T12:44:46.633Z,5.32
2023-01-31T12:55:41.831Z,5.40
2023-01-31T13:01:07.443Z,5.40
2023-01-31T13:06:15.535Z,5.45
2023-01-31T13:11:55.955Z,5.45
2023-01-31T13:17:17.160Z,5.46
2023-01-31T13:22:27.769Z,5.46
2023-01-31T13:27:39.294Z,5.48
2023-01-31T13:32:51.292Z,5.51
2023-01-31T13:38:02.173Z,5.56
2023-01-31T13:43:19.139Z,5.60
2023-01-31T13:48:52.788Z,5.62
2023-01-31T13:54:43.952Z,5.65
2023-01-31T13:59:54.743Z,5.63
2023-01-31T14:05:28.185Z,5.56
2023-01-31T14:10:40.365Z,5.51
2023-01-31T14:15:54.511Z,5.35
2023-01-31T14:21:30.901Z,5.35
2023-01-31T14:26:43.796Z,5.40
2023-01-31T14:31:50.194Z,5.47
2023-01-31T14:37:13.749Z,5.36
2023-01-31T14:42:49.459Z,5.29
2023-01-31T14:47:53.300Z,5.31
2023-01-31T14:53:25.017Z,5.27
2023-01-31T14:58:32.118Z,5.30
2023-01-31T15:03:50.061Z,5.29
2023-01-31T15:09:30.032Z,5.34
2023-01-31T15:14:49.649Z,5.33
2023-01-31T15:20:15.087Z,5.29
2023-01-31T15:25:48.029Z,5.25
2023-01-31T15:30:50.770Z,5.29
2023-01-31T15:35:54.686Z,5.31
2023-01-31T15:41:20.162Z,5.34
2023-01-31T15:46:42.390Z,5.37
2023-01-31T15:51:46.014Z,5.35
2023-01-31T15:56:47.588Z,5.38
2023-01-31T16:01:56.021Z,5.38
2023-01-31T16:07:03.595Z,5.35
2023-01-31T16:12:08.298Z,5.35
2023-01-31T16:17:12.716Z,5.33
2023-01-31T16:22:31.777Z,5.20
2023-01-31T16:27:38.160Z,5.29
2023-01-31T16:32:47.919Z,5.26
2023-01-31T16:38:03.449Z,5.19
2023-01-31T16:43:34.327Z,5.21
2023-01-31T16:48:43.203Z,5.21
2023-01-31T16:53:59.695Z,5.21
2023-01-31T16:59:04.781Z,5.13
2023-01-31T17:04:11.841Z,5.13
2023-01-31T17:09:24.456Z,5.07
2023-01-31T17:14:29.119Z,5.03
2023-01-31T17:19:31.673Z,5.09
2023-01-31T17:24:34.498Z,5.06
2023-01-31T17:29:36.003Z,5.03
2023-01-31T17:34:38.828Z,5.05
2023-01-31T17:39:40.801Z,5.06
2023-01-31T17:44:47.065Z,5.05
2023-01-31T17:49:54.991Z,5.00
2023-01-31T17:55:02.032Z,4.94
2023-01-31T18:00:12.585Z,4.93
2023-01-31T18:05:18.669Z,4.90
2023-01-31T18:10:31.822Z,4.86
2023-01-31T18:15:39.921Z,4.80
2023-01-31T18:20:47.707Z,4.69
2023-01-31T18:25:51.570Z,4.61
2023-01-31T18:31:01.812Z,4.57
2023-01-31T18:36:03.799Z,4.55
2023-01-31T18:41:10.805Z,4.48
2023-01-31T18:46:12.903Z,4.47
2023-01-31T18:51:15.697Z,4.50
2023-01-31T18:56:20.304Z,4.51
2023-01-31T19:01:26.988Z,4.54
2023-01-31T19:06:35.257Z,4.60
2023-01-31T19:11:45.449Z,4.63
2023-01-31T19:16:49.217Z,4.67
2023-01-31T19:22:02.082Z,4.70
2023-01-31T19:27:07.596Z,4.70
2023-01-31T19:32:12.165Z,4.71
2023-01-31T19:37:16.155Z,4.73
2023-01-31T19:42:20.615Z,4.75
2023-01-31T19:47:24.827Z,4.76
2023-01-31T19:52:33.837Z,4.77
2023-01-31T19:57:35.357Z,4.75
2023-01-31T20:02:43.445Z,4.78
2023-01-31T20:07:45.409Z,4.79
2023-01-31T20:12:47.064Z,4.82
2023-01-31T20:17:50.989Z,4.89
2023-01-31T20:22:58.822Z,4.91
2023-01-31T20:28:03.680Z,4.94
2023-01-31T20:33:08.925Z,4.98
2023-01-31T20:38:23.471Z,5.02
2023-01-31T20:43:27.516Z,5.05
2023-01-31T20:48:34.437Z,5.06
2023-01-31T20:53:38.298Z,5.12
2023-01-31T20:58:43.096Z,5.19
2023-01-31T21:03:51.915Z,5.18
2023-01-31T21:08:56.336Z,5.17
2023-01-31T21:14:02.387Z,5.15
2023-01-31T21:19:11.586Z,5.10
2023-01-31T21:24:22.787Z,5.12
2023-01-31T21:29:26.181Z,5.11
2023-01-31T21:34:27.935Z,5.11
2023-01-31T21:39:34.813Z,5.13
2023-01-31T21:44:41.461Z,5.10
2023-01-31T21:49:43.408Z,5.12
2023-01-31T21:54:52.910Z,5.16
2023-01-31T21:59:54.493Z,5.16
2023-01-31T22:05:01.442Z,5.11
2023-01-31T22:10:19.677Z,5.09
2023-01-31T22:15:24.775Z,5.09
2023-01-31T22:20:26.353Z,5.12
2023-01-31T22:25:33.008Z,5.12
2023-01-31T22:30:43.034Z,5.13
2023-01-31T22:35:49.257Z,5.12
2023-01-31T22:40:53.722Z,5.18
2023-01-31T22:46:04.776Z,5.18
2023-01-31T22:51:10.866Z,5.12
2023-01-31T22:56:16.256Z,5.09
2023-01-31T23:01:28.361Z,5.13
2023-01-31T23:06:36.655Z,5.12
2023-01-31T23:11:38.415Z,5.14
2023-01-31T23:17:03.370Z,5.18
2023-01-31T23:22:04.971Z,5.22
2023-01-31T23:27:09.557Z,5.27
2023-01-31T23:32:17.295Z,5.26
2023-01-31T23:37:33.943Z,5.32
2023-01-31T23:42:45.988Z,5.37
2023-01-31T23:47:47.837Z,5.33
2023-01-31T23:52:52.399Z,5.29
2023-01-31T23:57:55.145Z,5.34
